10:33
Airports
History
Links
Donate
Help keep this website running!
PayPal
Bitcoin
Information on this page is community maintained and may be outdated or inaccurate and is intended for reference only or PC simulator navigating.
Always use approved charts for navigating.
5M2
Bredlow Farm
Bredlow Farm (5M2)
England, Arkansas, United States (72046)
4
Lat/Lng:34° 32' 0.34" N / 92° 6' 0.52" W
34.533428 / -92.100144
Elevation:233'ft 71mMSL
ID / ICAO:5M2
Runways:1
Longest:(18-36) 675.9m 2,218ft Grass
Distance To
Airport ID:
Nearby VORs <50NM
Nearby NDBs
Nearby WeatherUpdated 07-26-17 09:53 GMT
Nearby weather at KLIT, Bill And Hillary Clinton Natio located 15.3 nautical miles from 5M2
Altimeter: 30.07
Visibility: 10.0 statute miles
Wind: 6 knots (250°)
Temp: 26°c 79°f
Humidity: 83.6%

METAR: KLIT 260953Z 25006KT 10SM CLR 26/23 A3007 RMK AO2 SLP183 T02560228

(Powered by phpweather)
Runway 18 / 36
Dimensions:675.9 x 24.4m 2218' x 80'ft
Surface:Grass
Runway 18 [A]Runway 36 [B]
Heading:183°TH 003°TH
Lat:
Lng:
34° 32' 11.17"N
92° 5' 59.6"W
34° 31' 49.5"N
92° 6' 1.44"W
User Notes and Comments
Google Map
Nearby Airports
4 Capps 8.2 NM
66M ENE 66°
(R) Punkin Patch Field 9.8 NM
0AR1 NW 316°
4 Tommy Anderson 11.9 NM
AR99 SE 137°
(R) Walls 13.0 NM
1AR1 E 91°
4 Sherrill Flying Service Inc. 13.2 NM
AR22 SE 142°
(R) R.v. Stewart Field 14.3 NM
AR55 N
(C) Bill And Hillary Clinton Natio 15.3 NM
KLIT (WX) NNW 332°
VFR Chart
Flight Planning at SkyVector.com